sensor_id;sensor_type;location;lat;lon;timestamp;pressure;altitude;pressure_sealevel;temperature;humidity
77881;BME280;67077;50.298;18.996;2023-08-31T00:01:53;97220.64;;;15.00;96.48
77881;BME280;67077;50.298;18.996;2023-08-31T00:04:21;97219.08;;;15.03;96.41
77881;BME280;67077;50.298;18.996;2023-08-31T00:06:49;97221.76;;;15.04;96.43
77881;BME280;67077;50.298;18.996;2023-08-31T00:09:17;97217.55;;;15.04;96.25
77881;BME280;67077;50.298;18.996;2023-08-31T00:11:46;97220.06;;;15.02;96.24
77881;BME280;67077;50.298;18.996;2023-08-31T00:14:14;97219.44;;;14.98;96.11
77881;BME280;67077;50.298;18.996;2023-08-31T00:16:42;97218.17;;;14.95;96.20
77881;BME280;67077;50.298;18.996;2023-08-31T00:19:10;97215.13;;;14.94;96.19
77881;BME280;67077;50.298;18.996;2023-08-31T00:21:38;97215.45;;;14.94;96.28
77881;BME280;67077;50.298;18.996;2023-08-31T00:24:06;97214.04;;;14.93;96.29
77881;BME280;67077;50.298;18.996;2023-08-31T00:26:36;97215.52;;;14.90;96.20
77881;BME280;67077;50.298;18.996;2023-08-31T00:29:10;97217.90;;;14.88;96.29
77881;BME280;67077;50.298;18.996;2023-08-31T00:31:38;97218.02;;;14.83;96.29
77881;BME280;67077;50.298;18.996;2023-08-31T00:34:06;97219.92;;;14.79;96.56
77881;BME280;67077;50.298;18.996;2023-08-31T00:36:34;97216.77;;;14.77;96.70
77881;BME280;67077;50.298;18.996;2023-08-31T00:39:03;97217.31;;;14.77;96.82
77881;BME280;67077;50.298;18.996;2023-08-31T00:41:33;97219.06;;;14.79;96.93
77881;BME280;67077;50.298;18.996;2023-08-31T00:44:01;97225.21;;;14.82;96.94
77881;BME280;67077;50.298;18.996;2023-08-31T00:46:32;97220.48;;;14.84;97.05
77881;BME280;67077;50.298;18.996;2023-08-31T00:49:00;97227.39;;;14.83;96.96
77881;BME280;67077;50.298;18.996;2023-08-31T00:51:28;97225.64;;;14.80;96.84
77881;BME280;67077;50.298;18.996;2023-08-31T00:53:56;97225.90;;;14.74;96.86
77881;BME280;67077;50.298;18.996;2023-08-31T00:56:26;97224.32;;;14.71;96.89
77881;BME280;67077;50.298;18.996;2023-08-31T00:58:54;97219.98;;;14.70;96.88
77881;BME280;67077;50.298;18.996;2023-08-31T01:01:36;97219.34;;;14.69;96.88
77881;BME280;67077;50.298;18.996;2023-08-31T01:04:16;97219.77;;;14.67;96.93
77881;BME280;67077;50.298;18.996;2023-08-31T01:07:06;97221.79;;;14.66;97.07
77881;BME280;67077;50.298;18.996;2023-08-31T01:12:22;97223.51;;;14.59;97.12
77881;BME280;67077;50.298;18.996;2023-08-31T01:15:03;97224.59;;;14.58;97.06
77881;BME280;67077;50.298;18.996;2023-08-31T01:17:33;97221.65;;;14.57;97.09
77881;BME280;67077;50.298;18.996;2023-08-31T01:20:05;97222.14;;;14.56;97.11
77881;BME280;67077;50.298;18.996;2023-08-31T01:22:39;97223.08;;;14.53;97.03
77881;BME280;67077;50.298;18.996;2023-08-31T01:25:11;97221.00;;;14.51;97.10
77881;BME280;67077;50.298;18.996;2023-08-31T01:27:40;97217.48;;;14.51;97.01
77881;BME280;67077;50.298;18.996;2023-08-31T01:30:09;97218.40;;;14.50;96.96
77881;BME280;67077;50.298;18.996;2023-08-31T01:32:37;97219.33;;;14.50;96.96
77881;BME280;67077;50.298;18.996;2023-08-31T01:35:05;97216.77;;;14.50;96.89
77881;BME280;67077;50.298;18.996;2023-08-31T01:37:46;97217.53;;;14.50;96.93
77881;BME280;67077;50.298;18.996;2023-08-31T01:40:22;97218.02;;;14.48;96.87
77881;BME280;67077;50.298;18.996;2023-08-31T01:42:51;97219.04;;;14.46;97.04
77881;BME280;67077;50.298;18.996;2023-08-31T01:45:20;97217.79;;;14.46;97.11
77881;BME280;67077;50.298;18.996;2023-08-31T01:47:49;97217.95;;;14.45;96.98
77881;BME280;67077;50.298;18.996;2023-08-31T01:50:17;97217.02;;;14.44;96.98
77881;BME280;67077;50.298;18.996;2023-08-31T01:52:44;97217.00;;;14.43;97.02
77881;BME280;67077;50.298;18.996;2023-08-31T01:55:12;97214.85;;;14.44;97.03
77881;BME280;67077;50.298;18.996;2023-08-31T01:57:43;97214.20;;;14.45;96.99
77881;BME280;67077;50.298;18.996;2023-08-31T02:00:11;97216.59;;;14.46;97.07
77881;BME280;67077;50.298;18.996;2023-08-31T02:02:40;97214.60;;;14.44;97.14
77881;BME280;67077;50.298;18.996;2023-08-31T02:05:08;97218.08;;;14.42;97.10
77881;BME280;67077;50.298;18.996;2023-08-31T02:07:37;97219.44;;;14.43;97.13
77881;BME280;67077;50.298;18.996;2023-08-31T02:10:05;97217.61;;;14.44;97.19
77881;BME280;67077;50.298;18.996;2023-08-31T02:12:34;97221.70;;;14.47;97.25
77881;BME280;67077;50.298;18.996;2023-08-31T02:15:04;97224.97;;;14.49;97.28
77881;BME280;67077;50.298;18.996;2023-08-31T02:17:36;97226.92;;;14.48;97.22
77881;BME280;67077;50.298;18.996;2023-08-31T02:20:04;97226.11;;;14.46;97.27
77881;BME280;67077;50.298;18.996;2023-08-31T02:22:34;97228.88;;;14.46;97.28
77881;BME280;67077;50.298;18.996;2023-08-31T02:25:03;97233.84;;;14.48;97.23
77881;BME280;67077;50.298;18.996;2023-08-31T02:27:31;97237.65;;;14.50;97.09
77881;BME280;67077;50.298;18.996;2023-08-31T02:29:59;97239.61;;;14.51;97.17
77881;BME280;67077;50.298;18.996;2023-08-31T02:32:27;97244.77;;;14.51;97.10
77881;BME280;67077;50.298;18.996;2023-08-31T02:34:55;97245.10;;;14.50;97.12
77881;BME280;67077;50.298;18.996;2023-08-31T02:37:23;97244.45;;;14.50;97.07
77881;BME280;67077;50.298;18.996;2023-08-31T02:39:50;97237.11;;;14.51;97.01
77881;BME280;67077;50.298;18.996;2023-08-31T02:42:18;97240.42;;;14.51;96.93
77881;BME280;67077;50.298;18.996;2023-08-31T02:44:46;97236.56;;;14.51;96.92
77881;BME280;67077;50.298;18.996;2023-08-31T02:47:14;97238.36;;;14.50;96.88
77881;BME280;67077;50.298;18.996;2023-08-31T02:49:42;97237.97;;;14.48;96.85
77881;BME280;67077;50.298;18.996;2023-08-31T02:52:10;97236.23;;;14.46;97.04
77881;BME280;67077;50.298;18.996;2023-08-31T02:54:38;97240.69;;;14.48;96.94
77881;BME280;67077;50.298;18.996;2023-08-31T02:57:06;97243.36;;;14.49;97.02
77881;BME280;67077;50.298;18.996;2023-08-31T02:59:35;97241.30;;;14.50;96.86
77881;BME280;67077;50.298;18.996;2023-08-31T03:02:04;97242.98;;;14.50;96.86
77881;BME280;67077;50.298;18.996;2023-08-31T03:04:32;97243.90;;;14.48;96.89
77881;BME280;67077;50.298;18.996;2023-08-31T03:07:00;97241.00;;;14.45;96.94
77881;BME280;67077;50.298;18.996;2023-08-31T03:09:28;97243.56;;;14.41;96.84
77881;BME280;67077;50.298;18.996;2023-08-31T03:11:55;97240.33;;;14.39;96.98
77881;BME280;67077;50.298;18.996;2023-08-31T03:14:23;97238.27;;;14.40;97.02
77881;BME280;67077;50.298;18.996;2023-08-31T03:16:51;97239.66;;;14.41;97.11
77881;BME280;67077;50.298;18.996;2023-08-31T03:19:19;97239.91;;;14.45;97.04
77881;BME280;67077;50.298;18.996;2023-08-31T03:21:47;97241.01;;;14.45;97.01
77881;BME280;67077;50.298;18.996;2023-08-31T03:24:14;97239.55;;;14.43;96.95
77881;BME280;67077;50.298;18.996;2023-08-31T03:26:42;97243.44;;;14.40;96.98
77881;BME280;67077;50.298;18.996;2023-08-31T03:29:10;97247.93;;;14.38;97.12
77881;BME280;67077;50.298;18.996;2023-08-31T03:31:38;97253.70;;;14.38;97.03
77881;BME280;67077;50.298;18.996;2023-08-31T03:34:06;97256.02;;;14.41;97.23
77881;BME280;67077;50.298;18.996;2023-08-31T03:36:34;97257.85;;;14.44;97.26
77881;BME280;67077;50.298;18.996;2023-08-31T03:39:03;97261.41;;;14.47;97.12
77881;BME280;67077;50.298;18.996;2023-08-31T03:41:31;97263.20;;;14.47;97.11
77881;BME280;67077;50.298;18.996;2023-08-31T03:43:58;97262.56;;;14.43;97.20
77881;BME280;67077;50.298;18.996;2023-08-31T03:46:26;97264.55;;;14.41;97.34
77881;BME280;67077;50.298;18.996;2023-08-31T03:48:54;97269.84;;;14.41;97.40
77881;BME280;67077;50.298;18.996;2023-08-31T03:51:22;97282.03;;;14.42;97.38
77881;BME280;67077;50.298;18.996;2023-08-31T03:53:50;97284.60;;;14.44;97.28
77881;BME280;67077;50.298;18.996;2023-08-31T03:56:18;97288.89;;;14.43;97.23
77881;BME280;67077;50.298;18.996;2023-08-31T03:58:46;97294.79;;;14.41;97.29
77881;BME280;67077;50.298;18.996;2023-08-31T04:01:13;97288.61;;;14.39;97.34
77881;BME280;67077;50.298;18.996;2023-08-31T04:03:42;97292.41;;;14.36;97.15
77881;BME280;67077;50.298;18.996;2023-08-31T04:06:10;97294.86;;;14.36;97.29
77881;BME280;67077;50.298;18.996;2023-08-31T04:08:38;97296.81;;;14.36;97.34
77881;BME280;67077;50.298;18.996;2023-08-31T04:11:06;97295.30;;;14.39;97.32
77881;BME280;67077;50.298;18.996;2023-08-31T04:13:33;97294.64;;;14.42;97.29
77881;BME280;67077;50.298;18.996;2023-08-31T04:16:01;97295.88;;;14.44;97.30
77881;BME280;67077;50.298;18.996;2023-08-31T04:18:29;97287.63;;;14.43;97.19
77881;BME280;67077;50.298;18.996;2023-08-31T04:20:57;97287.05;;;14.41;97.03
77881;BME280;67077;50.298;18.996;2023-08-31T04:23:26;97287.89;;;14.41;97.10
77881;BME280;67077;50.298;18.996;2023-08-31T04:25:54;97290.30;;;14.43;97.00
77881;BME280;67077;50.298;18.996;2023-08-31T04:28:23;97287.77;;;14.45;96.96
77881;BME280;67077;50.298;18.996;2023-08-31T04:30:51;97293.61;;;14.49;97.01
77881;BME280;67077;50.298;18.996;2023-08-31T04:33:19;97289.59;;;14.52;96.96
77881;BME280;67077;50.298;18.996;2023-08-31T04:35:47;97286.38;;;14.57;97.23
77881;BME280;67077;50.298;18.996;2023-08-31T04:38:16;97287.21;;;14.66;97.20
77881;BME280;67077;50.298;18.996;2023-08-31T04:40:44;97288.98;;;14.78;97.04
77881;BME280;67077;50.298;18.996;2023-08-31T04:43:12;97286.86;;;14.93;97.16
77881;BME280;67077;50.298;18.996;2023-08-31T04:45:40;97284.83;;;15.06;96.81
77881;BME280;67077;50.298;18.996;2023-08-31T04:48:08;97285.52;;;15.16;96.34
77881;BME280;67077;50.298;18.996;2023-08-31T04:50:36;97290.02;;;15.28;96.03
77881;BME280;67077;50.298;18.996;2023-08-31T04:53:04;97289.61;;;15.38;95.72
77881;BME280;67077;50.298;18.996;2023-08-31T04:55:32;97296.17;;;15.51;95.46
77881;BME280;67077;50.298;18.996;2023-08-31T04:58:00;97294.71;;;15.59;94.82
77881;BME280;67077;50.298;18.996;2023-08-31T05:00:27;97296.61;;;15.65;94.20
77881;BME280;67077;50.298;18.996;2023-08-31T05:02:56;97301.08;;;15.65;93.75
77881;BME280;67077;50.298;18.996;2023-08-31T05:05:24;97299.21;;;15.69;93.44
77881;BME280;67077;50.298;18.996;2023-08-31T05:07:52;97298.56;;;15.75;93.13
77881;BME280;67077;50.298;18.996;2023-08-31T05:10:20;97303.43;;;15.81;92.96
77881;BME280;67077;50.298;18.996;2023-08-31T05:12:48;97303.86;;;15.86;92.87
77881;BME280;67077;50.298;18.996;2023-08-31T05:15:15;97308.27;;;15.90;92.20
77881;BME280;67077;50.298;18.996;2023-08-31T05:17:44;97307.07;;;15.90;91.83
77881;BME280;67077;50.298;18.996;2023-08-31T05:20:12;97312.05;;;15.93;91.81
77881;BME280;67077;50.298;18.996;2023-08-31T05:22:40;97313.80;;;15.97;91.57
77881;BME280;67077;50.298;18.996;2023-08-31T05:25:08;97315.87;;;15.96;91.19
77881;BME280;67077;50.298;18.996;2023-08-31T05:27:36;97321.91;;;15.98;91.21
77881;BME280;67077;50.298;18.996;2023-08-31T05:30:04;97322.39;;;16.01;91.16
77881;BME280;67077;50.298;18.996;2023-08-31T05:32:32;97320.39;;;16.07;91.13
77881;BME280;67077;50.298;18.996;2023-08-31T05:35:00;97323.27;;;16.08;90.34
77881;BME280;67077;50.298;18.996;2023-08-31T05:37:32;97328.70;;;16.07;90.12
77881;BME280;67077;50.298;18.996;2023-08-31T05:40:00;97332.37;;;16.07;90.12
77881;BME280;67077;50.298;18.996;2023-08-31T05:42:28;97335.11;;;16.10;90.18
77881;BME280;67077;50.298;18.996;2023-08-31T05:44:56;97340.73;;;16.10;89.95
77881;BME280;67077;50.298;18.996;2023-08-31T05:47:24;97342.30;;;16.08;89.88
77881;BME280;67077;50.298;18.996;2023-08-31T05:49:52;97341.71;;;16.11;90.00
77881;BME280;67077;50.298;18.996;2023-08-31T05:52:21;97345.74;;;16.15;89.89
77881;BME280;67077;50.298;18.996;2023-08-31T05:54:49;97344.38;;;16.19;90.53
77881;BME280;67077;50.298;18.996;2023-08-31T05:57:20;97345.30;;;16.28;91.47
77881;BME280;67077;50.298;18.996;2023-08-31T05:59:48;97343.59;;;16.42;91.45
77881;BME280;67077;50.298;18.996;2023-08-31T06:02:16;97344.98;;;16.58;91.44
77881;BME280;67077;50.298;18.996;2023-08-31T06:04:44;97345.95;;;16.77;90.75
77881;BME280;67077;50.298;18.996;2023-08-31T06:07:12;97345.94;;;16.88;89.52
77881;BME280;67077;50.298;18.996;2023-08-31T06:09:41;97344.75;;;16.95;88.93
77881;BME280;67077;50.298;18.996;2023-08-31T06:12:09;97348.61;;;16.98;87.86
77881;BME280;67077;50.298;18.996;2023-08-31T06:14:37;97347.43;;;16.95;87.67
77881;BME280;67077;50.298;18.996;2023-08-31T06:17:06;97353.75;;;16.84;87.27
77881;BME280;67077;50.298;18.996;2023-08-31T06:19:36;97350.73;;;16.74;87.45
77881;BME280;67077;50.298;18.996;2023-08-31T06:22:06;97351.39;;;16.70;87.30
77881;BME280;67077;50.298;18.996;2023-08-31T06:24:34;97354.25;;;16.76;87.84
77881;BME280;67077;50.298;18.996;2023-08-31T06:27:03;97355.48;;;16.90;87.43
77881;BME280;67077;50.298;18.996;2023-08-31T06:29:32;97358.48;;;16.90;86.60
77881;BME280;67077;50.298;18.996;2023-08-31T06:32:00;97358.11;;;16.89;86.82
77881;BME280;67077;50.298;18.996;2023-08-31T06:34:28;97361.70;;;16.89;86.46
77881;BME280;67077;50.298;18.996;2023-08-31T06:36:55;97370.30;;;16.86;86.37
77881;BME280;67077;50.298;18.996;2023-08-31T06:39:25;97373.10;;;16.94;86.79
77881;BME280;67077;50.298;18.996;2023-08-31T06:41:53;97370.50;;;16.99;86.34
77881;BME280;67077;50.298;18.996;2023-08-31T06:44:21;97366.26;;;17.01;86.30
77881;BME280;67077;50.298;18.996;2023-08-31T06:46:50;97366.54;;;17.12;85.83
77881;BME280;67077;50.298;18.996;2023-08-31T06:49:19;97356.80;;;17.05;84.93
77881;BME280;67077;50.298;18.996;2023-08-31T06:51:48;97358.89;;;16.97;85.17
77881;BME280;67077;50.298;18.996;2023-08-31T06:54:16;97362.56;;;16.94;85.43
77881;BME280;67077;50.298;18.996;2023-08-31T06:56:44;97366.71;;;16.93;85.66
77881;BME280;67077;50.298;18.996;2023-08-31T06:59:12;97365.20;;;16.92;85.49
77881;BME280;67077;50.298;18.996;2023-08-31T07:01:40;97369.14;;;17.05;85.73
77881;BME280;67077;50.298;18.996;2023-08-31T07:04:08;97366.34;;;17.24;84.85
77881;BME280;67077;50.298;18.996;2023-08-31T07:06:36;97367.41;;;17.51;84.68
77881;BME280;67077;50.298;18.996;2023-08-31T07:09:04;97369.39;;;17.83;83.76
77881;BME280;67077;50.298;18.996;2023-08-31T07:11:34;97371.61;;;18.03;83.05
77881;BME280;67077;50.298;18.996;2023-08-31T07:14:02;97374.31;;;18.15;82.12
77881;BME280;67077;50.298;18.996;2023-08-31T07:16:31;97376.13;;;18.29;81.50
77881;BME280;67077;50.298;18.996;2023-08-31T07:18:59;97379.52;;;18.47;80.96
77881;BME280;67077;50.298;18.996;2023-08-31T07:21:27;97381.61;;;18.65;80.29
77881;BME280;67077;50.298;18.996;2023-08-31T07:23:55;97380.40;;;18.78;79.04
77881;BME280;67077;50.298;18.996;2023-08-31T07:26:23;97381.73;;;18.77;77.87
77881;BME280;67077;50.298;18.996;2023-08-31T07:28:53;97384.33;;;18.87;77.93
77881;BME280;67077;50.298;18.996;2023-08-31T07:31:22;97389.42;;;19.07;77.45
77881;BME280;67077;50.298;18.996;2023-08-31T07:33:50;97388.20;;;19.19;76.85
77881;BME280;67077;50.298;18.996;2023-08-31T07:36:18;97388.59;;;19.36;76.68
77881;BME280;67077;50.298;18.996;2023-08-31T07:38:46;97387.54;;;19.46;76.20
77881;BME280;67077;50.298;18.996;2023-08-31T07:41:15;97388.16;;;19.53;75.63
77881;BME280;67077;50.298;18.996;2023-08-31T07:43:43;97389.02;;;19.56;75.51
77881;BME280;67077;50.298;18.996;2023-08-31T07:46:11;97394.84;;;19.61;74.79
77881;BME280;67077;50.298;18.996;2023-08-31T07:48:40;97392.01;;;19.67;75.01
77881;BME280;67077;50.298;18.996;2023-08-31T07:51:10;97389.25;;;19.84;74.04
77881;BME280;67077;50.298;18.996;2023-08-31T07:53:40;97390.52;;;19.84;73.44
77881;BME280;67077;50.298;18.996;2023-08-31T07:56:09;97390.37;;;19.83;73.38
77881;BME280;67077;50.298;18.996;2023-08-31T07:58:37;97393.50;;;19.86;73.06
77881;BME280;67077;50.298;18.996;2023-08-31T08:01:11;97394.10;;;19.95;72.49
77881;BME280;67077;50.298;18.996;2023-08-31T08:03:40;97394.95;;;19.93;72.03
77881;BME280;67077;50.298;18.996;2023-08-31T08:06:08;97398.55;;;19.89;71.79
77881;BME280;67077;50.298;18.996;2023-08-31T08:08:36;97401.48;;;19.87;71.95
77881;BME280;67077;50.298;18.996;2023-08-31T08:11:05;97407.09;;;19.91;71.86
77881;BME280;67077;50.298;18.996;2023-08-31T08:13:35;97407.02;;;19.93;70.96
77881;BME280;67077;50.298;18.996;2023-08-31T08:16:07;97413.08;;;19.99;70.93
77881;BME280;67077;50.298;18.996;2023-08-31T08:18:37;97415.61;;;20.05;70.42
77881;BME280;67077;50.298;18.996;2023-08-31T08:21:06;97418.81;;;20.09;70.02
77881;BME280;67077;50.298;18.996;2023-08-31T08:23:34;97426.45;;;20.15;69.86
77881;BME280;67077;50.298;18.996;2023-08-31T08:26:02;97424.55;;;20.16;69.59
77881;BME280;67077;50.298;18.996;2023-08-31T08:28:33;97426.58;;;20.20;68.90
77881;BME280;67077;50.298;18.996;2023-08-31T08:31:06;97427.32;;;20.19;67.97
77881;BME280;67077;50.298;18.996;2023-08-31T08:33:35;97425.44;;;20.16;68.37
77881;BME280;67077;50.298;18.996;2023-08-31T08:36:04;97428.73;;;20.12;68.48
77881;BME280;67077;50.298;18.996;2023-08-31T08:38:34;97428.02;;;20.10;68.40
77881;BME280;67077;50.298;18.996;2023-08-31T08:41:05;97426.53;;;20.05;67.96
77881;BME280;67077;50.298;18.996;2023-08-31T08:43:36;97425.09;;;19.95;68.14
77881;BME280;67077;50.298;18.996;2023-08-31T08:46:05;97426.77;;;19.93;68.25
77881;BME280;67077;50.298;18.996;2023-08-31T08:48:36;97424.83;;;19.90;68.33
77881;BME280;67077;50.298;18.996;2023-08-31T08:51:11;97425.67;;;19.88;68.27
77881;BME280;67077;50.298;18.996;2023-08-31T08:53:54;97425.73;;;19.93;68.08
77881;BME280;67077;50.298;18.996;2023-08-31T08:56:23;97427.55;;;19.99;67.76
77881;BME280;67077;50.298;18.996;2023-08-31T08:58:52;97426.80;;;20.06;67.36
77881;BME280;67077;50.298;18.996;2023-08-31T09:01:22;97424.36;;;20.08;66.55
77881;BME280;67077;50.298;18.996;2023-08-31T09:03:56;97425.80;;;20.12;66.20
77881;BME280;67077;50.298;18.996;2023-08-31T09:06:25;97425.48;;;20.17;65.74
77881;BME280;67077;50.298;18.996;2023-08-31T09:08:56;97424.64;;;20.22;65.13
77881;BME280;67077;50.298;18.996;2023-08-31T09:11:52;97424.99;;;20.28;64.68
77881;BME280;67077;50.298;18.996;2023-08-31T09:14:20;97427.94;;;20.37;64.75
77881;BME280;67077;50.298;18.996;2023-08-31T09:16:50;97430.70;;;20.45;64.37
77881;BME280;67077;50.298;18.996;2023-08-31T09:19:23;97435.27;;;20.49;64.34
77881;BME280;67077;50.298;18.996;2023-08-31T09:21:55;97436.89;;;20.56;64.41
77881;BME280;67077;50.298;18.996;2023-08-31T09:24:27;97445.81;;;20.57;63.87
77881;BME280;67077;50.298;18.996;2023-08-31T09:26:58;97441.44;;;20.49;63.30
77881;BME280;67077;50.298;18.996;2023-08-31T09:29:27;97445.52;;;20.48;63.41
77881;BME280;67077;50.298;18.996;2023-08-31T09:31:56;97445.03;;;20.47;63.30
77881;BME280;67077;50.298;18.996;2023-08-31T09:34:32;97448.86;;;20.48;63.56
77881;BME280;67077;50.298;18.996;2023-08-31T09:37:06;97448.64;;;20.53;62.87
77881;BME280;67077;50.298;18.996;2023-08-31T09:39:41;97452.59;;;20.56;61.72
77881;BME280;67077;50.298;18.996;2023-08-31T09:42:10;97448.94;;;20.61;61.97
77881;BME280;67077;50.298;18.996;2023-08-31T09:44:45;97451.32;;;20.70;61.88
77881;BME280;67077;50.298;18.996;2023-08-31T09:47:20;97449.81;;;20.78;61.88
77881;BME280;67077;50.298;18.996;2023-08-31T09:50:01;97450.67;;;20.83;61.23
77881;BME280;67077;50.298;18.996;2023-08-31T09:52:32;97449.06;;;20.83;60.80
77881;BME280;67077;50.298;18.996;2023-08-31T09:55:01;97451.52;;;20.85;61.05
77881;BME280;67077;50.298;18.996;2023-08-31T09:57:32;97454.23;;;20.89;60.87
77881;BME280;67077;50.298;18.996;2023-08-31T10:00:01;97456.54;;;20.92;59.97
77881;BME280;67077;50.298;18.996;2023-08-31T10:02:31;97460.25;;;20.97;60.50
77881;BME280;67077;50.298;18.996;2023-08-31T10:05:00;97461.34;;;21.04;60.99
77881;BME280;67077;50.298;18.996;2023-08-31T10:07:29;97459.23;;;21.14;61.07
77881;BME280;67077;50.298;18.996;2023-08-31T10:09:58;97458.24;;;21.23;61.28
77881;BME280;67077;50.298;18.996;2023-08-31T10:12:27;97456.76;;;21.34;60.67
77881;BME280;67077;50.298;18.996;2023-08-31T10:14:55;97454.41;;;21.43;60.35
77881;BME280;67077;50.298;18.996;2023-08-31T10:17:25;97450.80;;;21.52;60.00
77881;BME280;67077;50.298;18.996;2023-08-31T10:19:54;97456.00;;;21.64;58.33
77881;BME280;67077;50.298;18.996;2023-08-31T10:22:23;97451.61;;;21.74;58.04
77881;BME280;67077;50.298;18.996;2023-08-31T10:25:06;97453.57;;;21.88;58.37
77881;BME280;67077;50.298;18.996;2023-08-31T10:27:39;97453.93;;;22.01;55.33
77881;BME280;67077;50.298;18.996;2023-08-31T10:35:55;97451.20;;;22.23;55.18
77881;BME280;67077;50.298;18.996;2023-08-31T10:38:31;97449.20;;;22.28;55.03
77881;BME280;67077;50.298;18.996;2023-08-31T10:41:20;97451.84;;;22.26;54.78
77881;BME280;67077;50.298;18.996;2023-08-31T10:43:49;97449.03;;;22.21;54.79
77881;BME280;67077;50.298;18.996;2023-08-31T10:51:40;97445.85;;;22.26;55.43
77881;BME280;67077;50.298;18.996;2023-08-31T10:59:52;97453.05;;;22.26;52.91
77881;BME280;67077;50.298;18.996;2023-08-31T11:02:37;97454.05;;;22.18;52.69
77881;BME280;67077;50.298;18.996;2023-08-31T11:07:47;97463.14;;;21.99;53.69
77881;BME280;67077;50.298;18.996;2023-08-31T11:10:20;97455.61;;;22.00;54.02
77881;BME280;67077;50.298;18.996;2023-08-31T11:12:52;97449.52;;;22.00;53.55
77881;BME280;67077;50.298;18.996;2023-08-31T11:15:25;97453.61;;;21.97;53.71
77881;BME280;67077;50.298;18.996;2023-08-31T11:17:55;97455.64;;;21.93;55.01
77881;BME280;67077;50.298;18.996;2023-08-31T11:20:24;97449.36;;;21.94;55.27
77881;BME280;67077;50.298;18.996;2023-08-31T11:22:55;97447.52;;;21.98;55.18
77881;BME280;67077;50.298;18.996;2023-08-31T11:25:24;97449.01;;;22.00;55.01
77881;BME280;67077;50.298;18.996;2023-08-31T11:27:57;97444.02;;;22.08;54.02
77881;BME280;67077;50.298;18.996;2023-08-31T11:30:27;97447.58;;;22.17;53.47
77881;BME280;67077;50.298;18.996;2023-08-31T11:32:55;97436.81;;;22.26;53.47
77881;BME280;67077;50.298;18.996;2023-08-31T11:35:24;97435.14;;;22.33;53.03
77881;BME280;67077;50.298;18.996;2023-08-31T11:37:56;97440.84;;;22.37;52.75
77881;BME280;67077;50.298;18.996;2023-08-31T11:40:26;97437.40;;;22.43;51.57
77881;BME280;67077;50.298;18.996;2023-08-31T11:42:55;97435.94;;;22.42;51.71
77881;BME280;67077;50.298;18.996;2023-08-31T11:45:24;97433.23;;;22.37;52.47
77881;BME280;67077;50.298;18.996;2023-08-31T11:47:53;97434.33;;;22.38;53.50
77881;BME280;67077;50.298;18.996;2023-08-31T11:50:24;97433.04;;;22.48;52.28
77881;BME280;67077;50.298;18.996;2023-08-31T11:52:54;97427.95;;;22.48;51.41
77881;BME280;67077;50.298;18.996;2023-08-31T11:55:23;97422.48;;;22.53;51.25
77881;BME280;67077;50.298;18.996;2023-08-31T11:57:52;97421.64;;;22.63;51.66
77881;BME280;67077;50.298;18.996;2023-08-31T12:00:21;97419.95;;;22.70;51.37
77881;BME280;67077;50.298;18.996;2023-08-31T12:03:02;97432.29;;;22.65;51.79
77881;BME280;67077;50.298;18.996;2023-08-31T12:05:48;97425.05;;;22.57;51.67
77881;BME280;67077;50.298;18.996;2023-08-31T12:08:16;97428.52;;;22.63;51.49
77881;BME280;67077;50.298;18.996;2023-08-31T12:10:51;97423.44;;;22.73;51.46
77881;BME280;67077;50.298;18.996;2023-08-31T12:13:20;97421.98;;;22.80;51.33
77881;BME280;67077;50.298;18.996;2023-08-31T12:15:53;97422.45;;;22.84;51.88
77881;BME280;67077;50.298;18.996;2023-08-31T12:18:22;97428.79;;;22.79;52.01
77881;BME280;67077;50.298;18.996;2023-08-31T12:20:51;97431.96;;;22.74;51.96
77881;BME280;67077;50.298;18.996;2023-08-31T12:23:19;97427.41;;;22.62;51.31
77881;BME280;67077;50.298;18.996;2023-08-31T12:25:54;97429.77;;;22.51;52.00
77881;BME280;67077;50.298;18.996;2023-08-31T12:28:23;97435.45;;;22.41;52.83
77881;BME280;67077;50.298;18.996;2023-08-31T12:30:53;97436.66;;;22.37;53.15
77881;BME280;67077;50.298;18.996;2023-08-31T12:33:22;97441.39;;;22.38;53.56
77881;BME280;67077;50.298;18.996;2023-08-31T12:35:50;97454.73;;;22.31;53.15
77881;BME280;67077;50.298;18.996;2023-08-31T12:38:18;97465.70;;;22.06;51.98
77881;BME280;67077;50.298;18.996;2023-08-31T12:40:47;97466.72;;;21.58;52.25
77881;BME280;67077;50.298;18.996;2023-08-31T12:43:18;97475.06;;;21.14;53.81
77881;BME280;67077;50.298;18.996;2023-08-31T12:45:46;97481.76;;;20.79;54.51
77881;BME280;67077;50.298;18.996;2023-08-31T12:48:14;97484.05;;;20.53;55.76
77881;BME280;67077;50.298;18.996;2023-08-31T12:50:43;97486.73;;;20.29;56.17
77881;BME280;67077;50.298;18.996;2023-08-31T12:53:11;97486.66;;;20.10;56.92
77881;BME280;67077;50.298;18.996;2023-08-31T12:55:39;97490.17;;;19.94;57.70
77881;BME280;67077;50.298;18.996;2023-08-31T12:58:07;97506.27;;;19.79;58.79
77881;BME280;67077;50.298;18.996;2023-08-31T13:00:36;97509.63;;;19.58;58.21
77881;BME280;67077;50.298;18.996;2023-08-31T13:03:06;97508.41;;;19.36;58.00
77881;BME280;67077;50.298;18.996;2023-08-31T13:05:39;97517.37;;;19.23;58.62
77881;BME280;67077;50.298;18.996;2023-08-31T13:08:09;97519.25;;;19.14;59.05
77881;BME280;67077;50.298;18.996;2023-08-31T13:10:36;97521.43;;;19.09;58.34
77881;BME280;67077;50.298;18.996;2023-08-31T13:13:04;97525.90;;;19.07;58.79
77881;BME280;67077;50.298;18.996;2023-08-31T13:15:33;97528.76;;;19.11;58.87
77881;BME280;67077;50.298;18.996;2023-08-31T13:18:01;97533.34;;;19.13;58.71
77881;BME280;67077;50.298;18.996;2023-08-31T13:20:30;97536.79;;;19.08;58.85
77881;BME280;67077;50.298;18.996;2023-08-31T13:22:58;97537.14;;;19.05;58.79
77881;BME280;67077;50.298;18.996;2023-08-31T13:25:26;97541.04;;;18.97;58.52